createdAt,value
2019-04-03T00:00:12.531Z,49.57
2019-04-03T00:02:41.043Z,49.29
2019-04-03T00:05:09.485Z,50.23
2019-04-03T00:07:37.975Z,50.03
2019-04-03T00:10:07.658Z,50.01
2019-04-03T00:12:36.957Z,50.16
2019-04-03T00:15:06.473Z,50.39
2019-04-03T00:17:34.959Z,50.93
2019-04-03T00:20:05.470Z,51.52
2019-04-03T00:22:33.859Z,51.37
2019-04-03T00:25:02.338Z,51.95
2019-04-03T00:27:30.703Z,51.72
2019-04-03T00:29:59.314Z,51.93
2019-04-03T00:32:27.880Z,52.26
2019-04-03T00:34:56.283Z,52.56
2019-04-03T00:37:24.959Z,52.74
2019-04-03T00:39:54.515Z,52.73
2019-04-03T00:42:24.548Z,53.18
2019-04-03T00:44:54.717Z,53.31
2019-04-03T00:47:25.123Z,53.85
2019-04-03T00:49:56.102Z,53.39
2019-04-03T00:52:23.723Z,53.33
2019-04-03T00:54:52.209Z,53.18
2019-04-03T00:57:20.688Z,52.70
2019-04-03T00:59:49.089Z,53.32
2019-04-03T01:02:17.576Z,53.07
2019-04-03T01:04:46.035Z,53.42
2019-04-03T01:07:14.593Z,53.12
2019-04-03T01:09:43.016Z,53.14
2019-04-03T01:12:11.526Z,53.07
2019-04-03T01:14:39.981Z,53.34
2019-04-03T01:17:08.399Z,53.43
2019-04-03T01:19:37.108Z,53.33
2019-04-03T01:22:07.274Z,53.59
2019-04-03T01:24:36.774Z,53.71
2019-04-03T01:27:06.627Z,53.63
2019-04-03T01:29:35.056Z,53.61
2019-04-03T01:32:03.684Z,53.26
2019-04-03T01:34:32.025Z,53.90
2019-04-03T01:37:00.442Z,54.03
2019-04-03T01:39:29.015Z,54.37
2019-04-03T01:41:57.392Z,54.21
2019-04-03T01:44:25.853Z,54.33
2019-04-03T01:46:54.456Z,54.57
2019-04-03T01:49:24.266Z,54.55
2019-04-03T01:51:52.727Z,54.66
2019-04-03T01:54:21.145Z,54.48
2019-04-03T01:56:49.656Z,54.39
2019-04-03T01:59:18.152Z,54.67
2019-04-03T02:01:46.592Z,54.89
2019-04-03T02:04:15.090Z,55.20
2019-04-03T02:06:44.292Z,55.26
2019-04-03T02:09:15.402Z,55.22
2019-04-03T02:11:43.294Z,55.78
2019-04-03T02:14:11.675Z,57.20
2019-04-03T02:16:40.124Z,59.11
2019-04-03T02:19:08.552Z,59.28
2019-04-03T02:21:37.042Z,59.13
2019-04-03T02:24:05.790Z,59.28
2019-04-03T02:26:34.236Z,60.30
2019-04-03T02:29:04.401Z,62.24
2019-04-03T02:31:33.008Z,61.63
2019-04-03T02:34:02.615Z,62.24
2019-04-03T02:36:31.663Z,62.71
2019-04-03T02:39:00.099Z,62.62
2019-04-03T02:41:28.549Z,62.90
2019-04-03T02:43:57.298Z,62.95
2019-04-03T02:46:28.154Z,63.02
2019-04-03T02:48:56.080Z,64.37
2019-04-03T02:51:24.863Z,64.21
2019-04-03T02:53:53.522Z,64.61
2019-04-03T02:56:22.149Z,65.63
2019-04-03T02:58:53.368Z,65.57
2019-04-03T03:01:20.905Z,66.05
2019-04-03T03:03:50.211Z,66.40
2019-04-03T03:06:19.589Z,66.05
2019-04-03T03:08:48.375Z,66.54
2019-04-03T03:11:17.011Z,66.91
2019-04-03T03:13:45.868Z,66.71
2019-04-03T03:16:17.342Z,66.98
2019-04-03T03:18:44.708Z,66.54
2019-04-03T03:21:14.466Z,65.92
2019-04-03T03:23:42.952Z,66.13
2019-04-03T03:26:12.101Z,67.29
2019-04-03T03:28:45.705Z,67.04
2019-04-03T03:31:12.709Z,65.71
2019-04-03T03:33:42.294Z,65.89
2019-04-03T03:36:15.286Z,65.80
2019-04-03T03:38:41.831Z,65.87
2019-04-03T03:41:10.504Z,66.59
2019-04-03T03:43:39.282Z,66.57
2019-04-03T03:46:08.013Z,66.95
2019-04-03T03:48:37.631Z,67.09
2019-04-03T03:51:07.472Z,67.33
2019-04-03T03:53:36.744Z,66.97
2019-04-03T03:56:06.223Z,67.39
2019-04-03T03:58:34.959Z,67.65
2019-04-03T04:01:03.542Z,67.24
2019-04-03T04:03:32.671Z,67.08
2019-04-03T04:06:01.340Z,67.24
2019-04-03T04:08:30.785Z,68.34
2019-04-03T04:10:59.943Z,67.65
2019-04-03T04:13:28.892Z,67.92
2019-04-03T04:15:57.606Z,67.87
2019-04-03T04:18:26.819Z,68.00
2019-04-03T04:20:55.348Z,67.92
2019-04-03T04:23:25.226Z,67.84
2019-04-03T04:25:54.075Z,68.82
2019-04-03T04:28:22.849Z,67.73
2019-04-03T04:30:52.111Z,68.38
2019-04-03T04:33:20.825Z,68.32
2019-04-03T04:35:51.676Z,68.29
2019-04-03T04:38:19.900Z,68.12
2019-04-03T04:40:48.395Z,67.81
2019-04-03T04:43:16.837Z,67.80
2019-04-03T04:45:45.329Z,67.90
2019-04-03T04:48:16.175Z,67.92
2019-04-03T04:50:44.064Z,68.00
2019-04-03T04:53:12.452Z,68.28
2019-04-03T04:55:40.983Z,69.60
2019-04-03T04:58:11.263Z,69.14
2019-04-03T05:00:39.541Z,68.89
2019-04-03T05:03:07.969Z,68.92
2019-04-03T05:05:36.481Z,68.66
2019-04-03T05:08:05.035Z,68.42
2019-04-03T05:10:36.412Z,68.83
2019-04-03T05:13:03.888Z,68.58
2019-04-03T05:15:32.612Z,68.72
2019-04-03T05:18:01.207Z,69.61
2019-04-03T05:20:29.579Z,70.32
2019-04-03T05:22:58.101Z,70.50
2019-04-03T05:25:27.864Z,69.99
2019-04-03T05:27:57.017Z,69.39
2019-04-03T05:30:30.354Z,69.29
2019-04-03T05:32:59.694Z,69.12
2019-04-03T05:35:28.359Z,69.53
2019-04-03T05:37:56.882Z,69.13
2019-04-03T05:40:26.226Z,68.88
2019-04-03T05:42:55.011Z,70.03
2019-04-03T05:45:23.521Z,70.01
2019-04-03T05:47:52.174Z,70.41
2019-04-03T05:50:20.714Z,70.04
2019-04-03T05:52:49.299Z,70.66
2019-04-03T05:55:17.919Z,69.58
2019-04-03T05:57:46.723Z,69.88
2019-04-03T06:00:15.534Z,69.86
2019-04-03T06:02:44.174Z,69.41
2019-04-03T06:05:13.218Z,69.49
2019-04-03T06:07:41.764Z,68.20
2019-04-03T06:10:10.514Z,68.27
2019-04-03T06:12:39.008Z,67.78
2019-04-03T06:15:09.813Z,67.15
2019-04-03T06:17:38.413Z,67.07
2019-04-03T06:20:10.513Z,66.90
2019-04-03T06:22:37.759Z,66.96
2019-04-03T06:25:07.301Z,66.71
2019-04-03T06:27:36.429Z,65.84
2019-04-03T06:30:06.993Z,64.73
2019-04-03T06:32:35.480Z,64.40
2019-04-03T06:35:04.249Z,63.31
2019-04-03T06:37:32.670Z,62.92
2019-04-03T06:40:02.927Z,63.58
2019-04-03T06:42:33.843Z,63.48
2019-04-03T06:45:02.256Z,63.59
2019-04-03T06:47:32.197Z,64.46
2019-04-03T06:50:00.990Z,64.54
2019-04-03T06:52:29.385Z,64.41
2019-04-03T06:54:57.827Z,63.53
2019-04-03T06:57:26.501Z,62.79
2019-04-03T06:59:54.862Z,62.08
2019-04-03T07:02:23.712Z,61.38
2019-04-03T07:04:52.356Z,59.37
2019-04-03T07:07:32.049Z,57.59
2019-04-03T07:09:51.319Z,57.26
2019-04-03T07:12:19.922Z,57.46
2019-04-03T07:14:48.396Z,57.94
2019-04-03T07:17:16.842Z,58.91
2019-04-03T07:19:45.273Z,58.82
2019-04-03T07:22:13.757Z,58.23
2019-04-03T07:24:42.268Z,58.42
2019-04-03T07:27:10.760Z,58.89
2019-04-03T07:29:40.166Z,59.35
2019-04-03T07:32:08.645Z,60.83
2019-04-03T07:34:37.086Z,61.08
2019-04-03T07:37:05.659Z,61.34
2019-04-03T07:39:34.105Z,61.45
2019-04-03T07:42:02.707Z,61.76
2019-04-03T07:44:31.595Z,61.75
2019-04-03T07:47:00.107Z,62.36
2019-04-03T07:49:28.533Z,64.46
2019-04-03T07:51:57.051Z,66.44
2019-04-03T07:54:26.759Z,66.65
2019-04-03T07:56:57.417Z,67.51
2019-04-03T07:59:26.105Z,68.59
2019-04-03T08:01:54.597Z,68.22
2019-04-03T08:04:25.102Z,68.93
2019-04-03T08:06:53.512Z,70.04
2019-04-03T08:09:21.986Z,69.27
2019-04-03T08:11:50.455Z,69.67
2019-04-03T08:14:19.706Z,70.41
2019-04-03T08:16:49.857Z,68.83
2019-04-03T08:19:18.310Z,68.00
2019-04-03T08:21:46.938Z,67.05
2019-04-03T08:24:15.465Z,66.19
2019-04-03T08:26:44.046Z,67.26
2019-04-03T08:29:12.443Z,67.21
2019-04-03T08:31:44.234Z,66.19
2019-04-03T08:34:16.628Z,67.36
2019-04-03T08:36:41.189Z,67.53
2019-04-03T08:39:10.649Z,67.46
2019-04-03T08:41:39.162Z,65.38
2019-04-03T08:44:08.999Z,65.75
2019-04-03T08:46:37.808Z,65.57
2019-04-03T08:49:06.382Z,65.62
2019-04-03T08:51:34.998Z,65.59
2019-04-03T08:54:03.665Z,64.64
2019-04-03T08:56:32.260Z,64.74
2019-04-03T08:59:00.695Z,62.54
2019-04-03T09:01:29.281Z,61.81
2019-04-03T09:03:57.717Z,63.27
2019-04-03T09:06:26.149Z,60.86
2019-04-03T09:08:57.270Z,60.85
2019-04-03T09:11:24.897Z,60.24
2019-04-03T09:13:54.854Z,56.94
2019-04-03T09:16:23.679Z,54.57
2019-04-03T09:18:52.376Z,54.36
2019-04-03T09:21:20.903Z,55.27
2019-04-03T09:23:49.501Z,55.08
2019-04-03T09:26:17.945Z,55.62
2019-04-03T09:28:46.435Z,55.91
2019-04-03T09:31:14.893Z,55.66
2019-04-03T09:33:43.304Z,55.08
2019-04-03T09:36:11.800Z,56.92
2019-04-03T09:38:41.759Z,56.04
2019-04-03T09:41:10.319Z,55.12
2019-04-03T09:43:40.103Z,53.80
2019-04-03T09:46:08.926Z,53.69
2019-04-03T09:48:37.951Z,53.31
2019-04-03T09:51:09.159Z,53.07
2019-04-03T09:53:36.670Z,52.56
2019-04-03T09:56:08.074Z,52.61
2019-04-03T09:58:36.268Z,53.33
2019-04-03T10:01:05.559Z,52.30
2019-04-03T10:03:34.085Z,51.47
2019-04-03T10:06:02.815Z,52.80
2019-04-03T10:08:31.749Z,53.16
2019-04-03T10:11:00.268Z,52.39
2019-04-03T10:13:29.116Z,50.43
2019-04-03T10:15:57.525Z,49.78
2019-04-03T10:18:26.081Z,50.12
2019-04-03T10:20:54.504Z,49.67
2019-04-03T10:23:23.395Z,49.66
2019-04-03T10:25:53.542Z,48.23
2019-04-03T10:28:22.123Z,47.86
2019-04-03T10:30:53.176Z,44.61
2019-04-03T10:33:20.723Z,43.94
2019-04-03T10:35:49.323Z,44.54
2019-04-03T10:38:18.935Z,44.76
2019-04-03T10:40:47.755Z,42.04
2019-04-03T10:43:16.520Z,39.97
2019-04-03T10:45:45.408Z,38.37
2019-04-03T10:48:13.862Z,38.94
2019-04-03T10:50:42.660Z,36.31
2019-04-03T10:53:11.247Z,36.17
2019-04-03T10:55:40.129Z,33.71
2019-04-03T10:58:09.144Z,34.94
2019-04-03T11:00:38.254Z,32.11
2019-04-03T11:03:06.760Z,32.74
2019-04-03T11:05:35.307Z,33.81
2019-04-03T11:08:03.959Z,35.15
2019-04-03T11:10:32.406Z,36.82
2019-04-03T11:13:03.264Z,36.65
2019-04-03T11:15:31.376Z,37.73
2019-04-03T11:17:59.844Z,37.87
2019-04-03T11:20:28.469Z,39.69
2019-04-03T11:25:27.212Z,40.34
2019-04-03T11:27:56.301Z,39.04
2019-04-03T11:30:25.794Z,39.04
2019-04-03T11:30:54.597Z,41.59
2019-04-03T11:32:54.381Z,39.88
2019-04-03T11:35:22.962Z,40.80
2019-04-03T11:37:51.729Z,39.14
2019-04-03T11:40:20.527Z,39.04
2019-04-03T11:42:50.790Z,40.12
2019-04-03T11:45:19.550Z,38.89
2019-04-03T11:47:48.073Z,38.23
2019-04-03T11:50:18.042Z,38.28
2019-04-03T11:52:46.659Z,37.87
2019-04-03T11:55:15.547Z,37.66
2019-04-03T11:57:44.141Z,38.41
2019-04-03T12:00:15.583Z,38.67
2019-04-03T12:02:44.755Z,38.21
2019-04-03T12:05:19.768Z,37.44
2019-04-03T12:07:45.954Z,38.01
2019-04-03T12:10:15.130Z,37.16
2019-04-03T12:12:43.785Z,37.29
2019-04-03T12:15:16.084Z,37.01
2019-04-03T12:17:43.827Z,36.99
2019-04-03T12:20:15.165Z,37.09
2019-04-03T12:22:42.975Z,37.77
2019-04-03T12:25:11.619Z,37.68
2019-04-03T12:27:40.383Z,39.37
2019-04-03T12:30:10.403Z,39.08
2019-04-03T12:32:43.506Z,38.14
2019-04-03T12:35:10.901Z,38.63
2019-04-03T12:37:39.613Z,39.26
2019-04-03T12:40:09.247Z,40.50
2019-04-03T12:42:38.159Z,40.44
2019-04-03T12:45:07.464Z,40.63
2019-04-03T12:47:36.177Z,40.54
2019-04-03T12:50:07.511Z,40.87
2019-04-03T12:52:36.606Z,41.21
2019-04-03T12:55:07.463Z,41.03
2019-04-03T12:57:38.815Z,40.43
2019-04-03T13:00:11.684Z,42.49
2019-04-03T13:02:40.130Z,44.37
2019-04-03T13:05:09.891Z,46.75
2019-04-03T13:07:38.437Z,46.21
2019-04-03T13:10:11.428Z,45.04
2019-04-03T13:12:40.267Z,45.37
2019-04-03T13:15:11.488Z,44.60
2019-04-03T13:17:43.466Z,44.21
2019-04-03T13:20:11.599Z,44.46
2019-04-03T13:22:42.566Z,44.28
2019-04-03T13:25:10.754Z,44.22
2019-04-03T13:27:39.670Z,44.23
2019-04-03T13:30:11.926Z,45.50
2019-04-03T13:32:41.025Z,45.63
2019-04-03T13:35:10.480Z,45.47
2019-04-03T13:37:38.998Z,46.93
2019-04-03T13:40:09.294Z,45.85
2019-04-03T13:42:37.925Z,47.15
2019-04-03T13:45:09.798Z,47.16
2019-04-03T13:47:41.502Z,48.37
2019-04-03T13:50:09.852Z,48.04
2019-04-03T13:52:42.451Z,47.31
2019-04-03T13:55:08.946Z,47.73
2019-04-03T13:57:37.623Z,48.69
2019-04-03T14:00:18.730Z,48.41
2019-04-03T14:02:38.629Z,47.46
2019-04-03T14:05:08.936Z,48.42
2019-04-03T14:07:40.473Z,49.00
2019-04-03T14:10:09.888Z,48.63
2019-04-03T14:12:42.969Z,49.74
2019-04-03T14:15:09.691Z,49.79
2019-04-03T14:17:39.754Z,49.46
2019-04-03T14:20:09.941Z,50.11
2019-04-03T14:22:38.639Z,50.74
2019-04-03T14:25:19.936Z,55.67
2019-04-03T14:27:40.756Z,58.40
2019-04-03T14:30:11.785Z,59.75
2019-04-03T14:32:40.599Z,60.99
2019-04-03T14:35:40.489Z,63.18
2019-04-03T14:37:40.007Z,64.54
2019-04-03T14:40:12.263Z,66.08
2019-04-03T14:42:39.605Z,66.96
2019-04-03T14:45:09.053Z,67.43
2019-04-03T14:47:37.582Z,68.08
2019-04-03T14:50:10.121Z,69.42
2019-04-03T14:52:38.611Z,70.72
2019-04-03T14:55:18.167Z,71.22
2019-04-03T14:57:38.220Z,72.46
2019-04-03T15:00:23.927Z,73.04
2019-04-03T15:02:41.054Z,73.32
2019-04-03T15:05:10.028Z,71.93
2019-04-03T15:07:38.654Z,72.58
2019-04-03T15:10:07.582Z,72.54
2019-04-03T15:12:38.592Z,72.42
2019-04-03T15:15:08.147Z,72.62
2019-04-03T15:17:37.861Z,73.62
2019-04-03T15:20:08.714Z,72.12
2019-04-03T15:22:37.234Z,69.65
2019-04-03T15:25:06.440Z,71.51
2019-04-03T15:27:35.082Z,71.91
2019-04-03T15:30:05.048Z,72.44
2019-04-03T15:32:34.226Z,72.53
2019-04-03T15:35:02.921Z,72.84
2019-04-03T15:37:31.492Z,74.40
2019-04-03T15:39:59.893Z,73.82
2019-04-03T15:42:28.491Z,73.73
2019-04-03T15:44:57.796Z,73.11
2019-04-03T15:47:35.221Z,71.54
2019-04-03T15:49:58.769Z,74.54
2019-04-03T15:52:26.684Z,73.14
2019-04-03T15:54:55.420Z,73.84
2019-04-03T15:57:24.386Z,73.41
2019-04-03T15:59:53.350Z,72.32
2019-04-03T16:02:21.946Z,74.94
2019-04-03T16:04:50.409Z,75.70
2019-04-03T16:07:18.805Z,76.31
2019-04-03T16:09:49.553Z,75.43
2019-04-03T16:12:17.848Z,75.65
2019-04-03T16:14:46.850Z,75.70
2019-04-03T16:17:15.571Z,76.49
2019-04-03T16:19:45.085Z,76.20
2019-04-03T16:22:13.785Z,76.67
2019-04-03T16:24:44.296Z,76.18
2019-04-03T16:27:12.822Z,76.99
2019-04-03T16:29:41.877Z,75.94
2019-04-03T16:32:10.419Z,76.01
2019-04-03T16:34:41.849Z,77.44
2019-04-03T16:37:09.417Z,76.00
2019-04-03T16:39:37.994Z,76.50
2019-04-03T16:42:06.622Z,76.29
2019-04-03T16:44:35.547Z,76.04
2019-04-03T16:47:04.160Z,76.91
2019-04-03T16:49:32.617Z,75.57
2019-04-03T16:52:03.479Z,76.41
2019-04-03T16:54:33.043Z,77.09
2019-04-03T16:57:03.729Z,77.13
2019-04-03T16:59:35.355Z,77.12
2019-04-03T17:02:02.681Z,76.48
2019-04-03T17:04:31.194Z,76.31
2019-04-03T17:06:59.714Z,76.98
2019-04-03T17:09:28.231Z,77.70
2019-04-03T17:11:56.730Z,77.76
2019-04-03T17:14:25.730Z,78.38
2019-04-03T17:16:54.206Z,77.45
2019-04-03T17:19:22.617Z,77.94
2019-04-03T17:21:51.470Z,76.52
2019-04-03T17:24:20.016Z,76.77
2019-04-03T17:26:53.917Z,79.23
2019-04-03T17:29:18.834Z,79.04
2019-04-03T17:31:47.322Z,78.34
2019-04-03T17:34:15.932Z,78.50
2019-04-03T17:36:44.484Z,79.37
2019-04-03T17:39:13.477Z,78.71
2019-04-03T17:41:41.976Z,78.82
2019-04-03T17:44:12.021Z,79.02
2019-04-03T17:46:40.724Z,79.20
2019-04-03T17:49:09.208Z,79.35
2019-04-03T17:51:37.762Z,79.88
2019-04-03T17:54:07.770Z,79.96
2019-04-03T17:56:36.564Z,80.46
2019-04-03T17:59:05.110Z,80.14
2019-04-03T18:01:33.690Z,79.78
2019-04-03T18:04:02.127Z,77.57
2019-04-03T18:06:30.670Z,77.58
2019-04-03T18:08:59.203Z,77.92
2019-04-03T18:11:27.724Z,77.07
2019-04-03T18:13:56.154Z,77.82
2019-04-03T18:16:24.583Z,78.03
2019-04-03T18:18:53.010Z,78.33
2019-04-03T18:21:21.534Z,78.46
2019-04-03T18:23:52.605Z,79.34
2019-04-03T18:26:20.241Z,80.58
2019-04-03T18:28:48.735Z,79.62
2019-04-03T18:31:17.286Z,79.83
2019-04-03T18:33:46.827Z,79.41
2019-04-03T18:36:16.032Z,79.15
2019-04-03T18:38:44.609Z,79.89
2019-04-03T18:41:13.113Z,79.10
2019-04-03T18:43:41.590Z,80.60
2019-04-03T18:46:10.106Z,81.01
2019-04-03T18:48:38.547Z,79.92
2019-04-03T18:51:07.040Z,80.49
2019-04-03T18:53:35.545Z,80.72
2019-04-03T18:56:04.156Z,80.56
2019-04-03T18:58:32.593Z,80.68
2019-04-03T19:01:01.802Z,80.87
2019-04-03T19:03:30.865Z,81.31
2019-04-03T19:05:59.950Z,80.39
2019-04-03T19:08:28.539Z,81.01
2019-04-03T19:11:02.705Z,81.41
2019-04-03T19:13:27.219Z,81.76
2019-04-03T19:15:55.655Z,81.70
2019-04-03T19:18:24.178Z,80.81
2019-04-03T19:20:52.773Z,81.18
2019-04-03T19:23:21.230Z,80.30
2019-04-03T19:25:49.662Z,80.43
2019-04-03T19:28:18.118Z,79.15
2019-04-03T19:30:46.747Z,78.91
2019-04-03T19:33:15.261Z,78.24
2019-04-03T19:35:43.786Z,79.29
2019-04-03T19:38:13.379Z,79.20
2019-04-03T19:40:42.048Z,78.93
2019-04-03T19:43:10.521Z,79.68
2019-04-03T19:45:38.970Z,80.81
2019-04-03T19:48:07.513Z,80.05
2019-04-03T19:50:36.103Z,79.79
2019-04-03T19:53:04.680Z,80.26
2019-04-03T19:55:33.210Z,79.83
2019-04-03T19:58:01.868Z,79.71
2019-04-03T20:00:30.300Z,80.81
2019-04-03T20:02:58.892Z,79.77
2019-04-03T20:05:27.366Z,79.95
2019-04-03T20:07:58.718Z,80.20
2019-04-03T20:10:26.057Z,79.19
2019-04-03T20:12:54.593Z,79.42
2019-04-03T20:15:23.403Z,79.57
2019-04-03T20:17:54.511Z,80.18
2019-04-03T20:20:22.073Z,80.29
2019-04-03T20:22:50.491Z,79.77
2019-04-03T20:25:19.025Z,79.75
2019-04-03T20:27:51.382Z,79.53
2019-04-03T20:30:17.805Z,79.69
2019-04-03T20:32:46.311Z,79.83
2019-04-03T20:35:18.047Z,79.99
2019-04-03T20:37:44.986Z,79.74
2019-04-03T20:40:13.704Z,80.23
2019-04-03T20:42:42.188Z,79.53
2019-04-03T20:45:10.958Z,79.58
2019-04-03T20:47:39.451Z,78.94
2019-04-03T20:50:08.170Z,79.50
2019-04-03T20:52:36.651Z,79.74
2019-04-03T20:55:06.825Z,79.80
2019-04-03T20:57:35.310Z,79.70
2019-04-03T21:00:08.757Z,79.98
2019-04-03T21:02:37.184Z,80.07
2019-04-03T21:05:07.932Z,79.94
2019-04-03T21:07:36.589Z,79.28
2019-04-03T21:10:07.335Z,79.81
2019-04-03T21:12:36.379Z,79.74
2019-04-03T21:15:08.687Z,78.93
2019-04-03T21:17:36.002Z,78.65
2019-04-03T21:20:06.893Z,79.38
2019-04-03T21:22:35.437Z,78.92
2019-04-03T21:25:05.972Z,80.55
2019-04-03T21:27:34.776Z,81.90
2019-04-03T21:30:04.498Z,82.14
2019-04-03T21:32:33.043Z,81.67
2019-04-03T21:35:03.993Z,81.92
2019-04-03T21:37:31.778Z,81.67
2019-04-03T21:40:03.236Z,81.23
2019-04-03T21:42:30.443Z,81.51
2019-04-03T21:44:58.881Z,83.50
2019-04-03T21:47:27.372Z,83.09
2019-04-03T21:49:55.780Z,83.65
2019-04-03T21:52:24.233Z,82.94
2019-04-03T21:54:52.715Z,82.57
2019-04-03T21:57:21.127Z,84.04
2019-04-03T21:59:49.665Z,85.19
2019-04-03T22:02:18.224Z,84.45
2019-04-03T22:04:46.652Z,84.13
2019-04-03T22:07:15.121Z,83.59
2019-04-03T22:09:43.537Z,83.25
2019-04-03T22:12:11.974Z,82.95
2019-04-03T22:14:40.967Z,82.44
2019-04-03T22:17:10.577Z,82.04
2019-04-03T22:19:39.014Z,82.01
2019-04-03T22:22:07.521Z,80.63
2019-04-03T22:24:37.806Z,79.88
2019-04-03T22:27:06.376Z,80.10
2019-04-03T22:29:34.795Z,80.00
2019-04-03T22:32:03.538Z,80.36
2019-04-03T22:34:31.961Z,79.57
2019-04-03T22:37:03.855Z,79.93
2019-04-03T22:39:30.686Z,80.32
2019-04-03T22:41:59.162Z,79.78
2019-04-03T22:44:27.642Z,79.92
2019-04-03T22:46:56.103Z,80.34
2019-04-03T22:49:24.511Z,79.75
2019-04-03T22:51:53.104Z,79.31
2019-04-03T22:54:21.573Z,79.71
2019-04-03T22:56:50.041Z,78.75
2019-04-03T22:59:18.753Z,78.63
2019-04-03T23:01:47.167Z,79.87
2019-04-03T23:04:15.662Z,79.98
2019-04-03T23:06:44.199Z,76.90
2019-04-03T23:09:12.625Z,79.61
2019-04-03T23:11:41.038Z,82.29
2019-04-03T23:14:09.493Z,81.63
2019-04-03T23:16:37.975Z,81.21
2019-04-03T23:19:06.401Z,82.91
2019-04-03T23:21:34.861Z,83.50
2019-04-03T23:24:03.378Z,83.36
2019-04-03T23:26:32.823Z,83.98
2019-04-03T23:29:04.786Z,84.97
2019-04-03T23:31:31.614Z,84.07
2019-04-03T23:34:00.105Z,84.34
2019-04-03T23:36:28.544Z,84.72
2019-04-03T23:38:57.155Z,83.77
2019-04-03T23:41:25.613Z,84.65
2019-04-03T23:43:54.049Z,84.60
2019-04-03T23:46:22.470Z,85.09
2019-04-03T23:48:50.884Z,84.80
2019-04-03T23:51:23.548Z,83.83
2019-04-03T23:53:49.597Z,83.20
2019-04-03T23:56:18.046Z,84.27
2019-04-03T23:58:46.456Z,84.23
